createdAt,value
2018-03-16T00:00:21.426Z,94.60
2018-03-16T00:01:21.347Z,95.69
2018-03-16T00:03:14.123Z,94.32
2018-03-16T00:04:14.049Z,95.31
2018-03-16T00:06:06.806Z,95.55
2018-03-16T00:07:06.720Z,97.11
2018-03-16T00:08:59.507Z,97.35
2018-03-16T00:09:59.427Z,96.45
2018-03-16T00:11:52.183Z,96.54
2018-03-16T00:12:52.109Z,94.56
2018-03-16T00:14:44.866Z,97.39
2018-03-16T00:15:44.793Z,96.16
2018-03-16T00:17:37.553Z,95.31
2018-03-16T00:18:37.480Z,96.16
2018-03-16T00:20:30.260Z,95.88
2018-03-16T00:21:30.190Z,97.20
2018-03-16T00:23:22.997Z,96.73
2018-03-16T00:24:22.921Z,95.97
2018-03-16T00:26:16.144Z,96.92
2018-03-16T00:27:16.056Z,95.78
2018-03-16T00:29:08.836Z,95.88
2018-03-16T00:30:08.756Z,97.49
2018-03-16T00:32:01.509Z,96.83
2018-03-16T00:33:01.539Z,98.25
2018-03-16T00:34:54.187Z,97.68
2018-03-16T00:35:54.110Z,97.49
2018-03-16T00:37:46.889Z,97.68
2018-03-16T00:38:46.800Z,97.77
2018-03-16T00:40:39.555Z,97.96
2018-03-16T00:41:39.486Z,97.77
2018-03-16T00:43:32.256Z,97.30
2018-03-16T00:44:32.180Z,95.40
2018-03-16T00:46:24.941Z,98.91
2018-03-16T00:47:24.869Z,97.02
2018-03-16T00:49:17.623Z,97.77
2018-03-16T00:50:17.536Z,99.19
2018-03-16T00:52:10.293Z,96.54
2018-03-16T00:53:10.221Z,96.92
2018-03-16T00:55:03.012Z,97.77
2018-03-16T00:56:02.907Z,96.83
2018-03-16T00:57:55.659Z,97.77
2018-03-16T00:58:55.587Z,97.87
2018-03-16T01:00:48.342Z,97.20
2018-03-16T01:01:48.263Z,98.44
2018-03-16T01:03:41.111Z,98.25
2018-03-16T01:04:40.946Z,98.25
2018-03-16T01:06:33.716Z,99.19
2018-03-16T01:07:33.635Z,98.25
2018-03-16T01:09:26.453Z,99.01
2018-03-16T01:10:26.352Z,99.10
2018-03-16T01:12:19.158Z,99.19
2018-03-16T01:13:19.021Z,98.63
2018-03-16T01:15:11.806Z,98.63
2018-03-16T01:16:11.720Z,99.99
2018-03-16T01:18:04.476Z,99.38
2018-03-16T01:19:04.408Z,99.01
2018-03-16T01:20:57.168Z,98.44
2018-03-16T01:21:57.090Z,99.10
2018-03-16T01:23:49.836Z,99.57
2018-03-16T01:24:49.765Z,99.76
2018-03-16T01:26:42.535Z,97.68
2018-03-16T01:27:42.452Z,98.06
2018-03-16T01:29:35.204Z,99.57
2018-03-16T01:30:35.123Z,99.95
2018-03-16T01:32:27.893Z,99.01
2018-03-16T01:33:27.813Z,99.57
2018-03-16T01:35:20.603Z,98.63
2018-03-16T01:36:20.508Z,99.99
2018-03-16T01:38:13.257Z,99.48
2018-03-16T01:39:13.188Z,99.95
2018-03-16T01:41:05.947Z,99.99
2018-03-16T01:42:05.861Z,99.99
2018-03-16T01:43:58.618Z,99.76
2018-03-16T01:44:58.552Z,99.99
2018-03-16T01:46:51.539Z,99.99
2018-03-16T01:47:51.230Z,99.99
2018-03-16T01:49:43.983Z,99.99
2018-03-16T01:50:43.913Z,99.19
2018-03-16T01:52:36.678Z,99.99
2018-03-16T01:53:36.594Z,99.57
2018-03-16T01:55:29.351Z,99.99
2018-03-16T01:56:29.272Z,99.99
2018-03-16T01:58:22.049Z,99.99
2018-03-16T01:59:21.974Z,99.99
2018-03-16T02:01:14.722Z,99.66
2018-03-16T02:02:14.650Z,99.99
2018-03-16T02:04:07.405Z,99.99
2018-03-16T02:05:07.330Z,99.99
2018-03-16T02:07:00.142Z,99.99
2018-03-16T02:08:00.021Z,99.99
2018-03-16T02:09:52.775Z,99.99
2018-03-16T02:10:52.705Z,99.99
2018-03-16T02:12:45.471Z,99.99
2018-03-16T02:13:45.396Z,99.99
2018-03-16T02:15:38.191Z,99.99
2018-03-16T02:16:38.092Z,99.99
2018-03-16T02:18:30.866Z,99.99
2018-03-16T02:19:30.782Z,99.99
2018-03-16T02:21:23.534Z,99.99
2018-03-16T02:22:23.466Z,99.99
2018-03-16T02:24:16.294Z,99.99
2018-03-16T02:25:16.178Z,99.99
2018-03-16T02:27:08.924Z,99.99
2018-03-16T02:28:08.852Z,99.99
2018-03-16T02:30:01.632Z,99.99
2018-03-16T02:31:01.539Z,99.99
2018-03-16T02:32:54.295Z,99.99
2018-03-16T02:33:54.211Z,99.99
2018-03-16T02:35:47.126Z,99.99
2018-03-16T02:36:46.916Z,99.99
2018-03-16T02:38:39.662Z,99.99
2018-03-16T02:39:39.594Z,99.99
2018-03-16T02:41:32.370Z,99.99
2018-03-16T02:42:32.291Z,99.99
2018-03-16T02:44:25.072Z,99.99
2018-03-16T02:45:24.984Z,99.99
2018-03-16T02:47:17.765Z,99.99
2018-03-16T02:48:17.685Z,99.99
2018-03-16T02:50:10.441Z,99.99
2018-03-16T02:51:10.362Z,99.99
2018-03-16T02:53:03.111Z,99.99
2018-03-16T02:54:03.041Z,99.99
2018-03-16T02:55:55.798Z,99.99
2018-03-16T02:56:55.716Z,99.99
2018-03-16T02:58:48.510Z,99.99
2018-03-16T02:59:48.528Z,99.99
2018-03-16T03:01:41.158Z,99.99
2018-03-16T03:02:41.113Z,99.99
2018-03-16T03:04:33.842Z,99.99
2018-03-16T03:05:33.775Z,99.99
2018-03-16T03:07:26.552Z,99.99
2018-03-16T03:08:26.454Z,99.99
2018-03-16T03:10:19.228Z,99.99
2018-03-16T03:11:19.126Z,99.99
2018-03-16T03:13:11.907Z,99.99
2018-03-16T03:14:11.817Z,99.99
2018-03-16T03:16:04.590Z,99.99
2018-03-16T03:17:04.502Z,99.99
2018-03-16T03:18:57.248Z,99.99
2018-03-16T03:19:57.176Z,99.99
2018-03-16T03:21:49.943Z,99.99
2018-03-16T03:22:49.865Z,99.99
2018-03-16T03:24:42.651Z,99.99
2018-03-16T03:25:42.571Z,99.99
2018-03-16T03:27:35.376Z,99.99
2018-03-16T03:28:35.348Z,99.99
2018-03-16T03:30:28.045Z,99.99
2018-03-16T03:31:27.965Z,99.99
2018-03-16T03:33:20.738Z,99.99
2018-03-16T03:34:20.659Z,99.99
2018-03-16T03:36:13.408Z,99.99
2018-03-16T03:37:13.340Z,99.99
2018-03-16T03:39:06.099Z,99.99
2018-03-16T03:40:06.027Z,99.99
2018-03-16T03:41:58.769Z,99.99
2018-03-16T03:42:58.702Z,99.99
2018-03-16T03:44:51.592Z,99.99
2018-03-16T03:45:51.396Z,99.99
2018-03-16T03:47:44.166Z,99.99
2018-03-16T03:48:44.074Z,99.99
2018-03-16T03:50:36.840Z,99.99
2018-03-16T03:51:36.763Z,99.99
2018-03-16T03:53:29.536Z,99.99
2018-03-16T03:54:29.438Z,99.99
2018-03-16T03:56:22.362Z,99.99
2018-03-16T03:57:22.136Z,99.99
2018-03-16T03:59:14.896Z,99.99
2018-03-16T04:00:14.834Z,99.99
2018-03-16T04:02:07.564Z,99.99
2018-03-16T04:03:07.490Z,99.99
2018-03-16T04:05:00.269Z,99.99
2018-03-16T04:06:00.185Z,99.99
2018-03-16T04:07:52.991Z,99.99
2018-03-16T04:08:52.863Z,99.99
2018-03-16T04:10:45.645Z,99.99
2018-03-16T04:11:45.559Z,99.99
2018-03-16T04:13:38.350Z,99.99
2018-03-16T04:14:38.261Z,99.99
2018-03-16T04:16:31.023Z,99.99
2018-03-16T04:17:30.945Z,99.99
2018-03-16T04:19:23.700Z,99.99
2018-03-16T04:20:23.626Z,99.99
2018-03-16T04:22:16.385Z,99.99
2018-03-16T04:23:16.308Z,99.99
2018-03-16T04:25:09.162Z,99.99
2018-03-16T04:26:09.022Z,99.99
2018-03-16T04:28:01.745Z,99.99
2018-03-16T04:29:01.679Z,99.99
2018-03-16T04:30:54.470Z,99.99
2018-03-16T04:31:54.391Z,99.99
2018-03-16T04:33:47.139Z,99.99
2018-03-16T04:34:47.064Z,99.99
2018-03-16T04:36:39.825Z,99.99
2018-03-16T04:37:39.763Z,99.99
2018-03-16T04:39:32.627Z,99.99
2018-03-16T04:40:32.425Z,99.99
2018-03-16T04:42:25.185Z,99.99
2018-03-16T04:43:25.150Z,99.99
2018-03-16T04:45:17.860Z,99.99
2018-03-16T04:46:17.784Z,99.99
2018-03-16T04:48:10.572Z,99.99
2018-03-16T04:49:10.484Z,99.99
2018-03-16T04:51:03.258Z,99.99
2018-03-16T04:52:03.181Z,99.99
2018-03-16T04:53:56.011Z,99.99
2018-03-16T04:54:55.890Z,99.99
2018-03-16T04:56:48.673Z,99.99
2018-03-16T04:57:48.592Z,99.99
2018-03-16T04:59:41.336Z,99.99
2018-03-16T05:00:41.264Z,99.99
2018-03-16T05:02:34.046Z,99.99
2018-03-16T05:03:33.950Z,99.99
2018-03-16T05:05:26.731Z,99.99
2018-03-16T05:06:26.637Z,99.99
2018-03-16T05:08:19.436Z,99.99
2018-03-16T05:09:19.377Z,99.99
2018-03-16T05:11:12.135Z,99.99
2018-03-16T05:12:12.051Z,99.99
2018-03-16T05:14:05.433Z,99.99
2018-03-16T05:15:04.852Z,99.99
2018-03-16T05:16:57.679Z,99.99
2018-03-16T05:17:57.604Z,99.99
2018-03-16T05:19:50.436Z,99.99
2018-03-16T05:20:50.376Z,99.99
2018-03-16T05:22:43.170Z,99.99
2018-03-16T05:23:43.044Z,99.99
2018-03-16T05:25:35.912Z,99.99
2018-03-16T05:26:35.736Z,99.99
2018-03-16T05:28:28.661Z,99.99
2018-03-16T05:29:28.532Z,99.99
2018-03-16T05:31:21.381Z,99.99
2018-03-16T05:32:21.279Z,99.99
2018-03-16T05:34:14.213Z,99.99
2018-03-16T05:35:13.976Z,99.99
2018-03-16T05:37:07.141Z,99.99
2018-03-16T05:38:06.654Z,99.99
2018-03-16T05:39:59.768Z,99.99
2018-03-16T05:40:59.673Z,99.99
2018-03-16T05:42:51.609Z,99.99
2018-03-16T05:43:51.517Z,99.99
2018-03-16T05:45:44.325Z,99.99
2018-03-16T05:46:44.248Z,99.99
2018-03-16T05:48:37.032Z,99.99
2018-03-16T05:49:36.988Z,99.99
2018-03-16T05:51:29.770Z,99.99
2018-03-16T05:52:29.665Z,99.99
2018-03-16T05:54:22.395Z,99.99
2018-03-16T05:55:22.348Z,99.99
2018-03-16T05:57:15.488Z,99.99
2018-03-16T05:58:15.397Z,99.99
2018-03-16T06:00:08.297Z,99.99
2018-03-16T06:01:08.112Z,99.99
2018-03-16T06:03:00.984Z,99.99
2018-03-16T06:04:00.897Z,99.99
2018-03-16T06:05:53.696Z,99.99
2018-03-16T06:06:53.606Z,99.99
2018-03-16T06:08:46.392Z,99.99
2018-03-16T06:09:46.316Z,99.99
2018-03-16T06:11:39.243Z,99.99
2018-03-16T06:12:39.147Z,99.99
2018-03-16T06:14:32.066Z,99.99
2018-03-16T06:15:31.941Z,99.99
2018-03-16T06:17:24.723Z,99.99
2018-03-16T06:18:24.694Z,99.99
2018-03-16T06:20:17.533Z,99.99
2018-03-16T06:21:17.541Z,99.99
2018-03-16T06:23:10.225Z,99.99
2018-03-16T06:24:10.075Z,99.99
2018-03-16T06:26:01.938Z,99.99
2018-03-16T06:27:01.889Z,99.99
2018-03-16T06:28:54.562Z,99.99
2018-03-16T06:29:54.489Z,99.99
2018-03-16T06:31:47.308Z,99.99
2018-03-16T06:32:47.420Z,99.99
2018-03-16T06:34:39.995Z,99.99
2018-03-16T06:35:39.936Z,99.99
2018-03-16T06:37:31.741Z,99.99
2018-03-16T06:38:31.667Z,99.99
2018-03-16T06:40:24.435Z,99.99
2018-03-16T06:41:24.370Z,99.99
2018-03-16T06:43:17.181Z,99.99
2018-03-16T06:44:17.082Z,99.99
2018-03-16T06:46:09.906Z,99.99
2018-03-16T06:47:09.815Z,99.99
2018-03-16T06:49:02.790Z,99.99
2018-03-16T06:50:02.583Z,99.99
2018-03-16T06:51:55.362Z,99.99
2018-03-16T06:52:55.283Z,99.99
2018-03-16T06:54:48.107Z,99.99
2018-03-16T06:55:48.023Z,99.99
2018-03-16T06:57:40.995Z,99.99
2018-03-16T06:58:40.921Z,99.99
2018-03-16T07:00:33.697Z,99.99
2018-03-16T07:01:33.617Z,99.99
2018-03-16T07:03:26.457Z,99.99
2018-03-16T07:04:26.387Z,99.99
2018-03-16T07:06:19.178Z,99.99
2018-03-16T07:07:19.100Z,99.99
2018-03-16T07:09:10.916Z,99.99
2018-03-16T07:10:10.849Z,99.99
2018-03-16T07:12:03.771Z,99.99
2018-03-16T07:13:03.581Z,99.99
2018-03-16T07:14:56.488Z,99.99
2018-03-16T07:15:56.403Z,99.99
2018-03-16T07:17:49.206Z,99.99
2018-03-16T07:18:49.111Z,99.99
2018-03-16T07:20:41.887Z,99.99
2018-03-16T07:21:41.798Z,99.99
2018-03-16T07:23:34.611Z,99.99
2018-03-16T07:24:34.507Z,99.99
2018-03-16T07:26:27.280Z,99.99
2018-03-16T07:27:27.197Z,99.99
2018-03-16T07:29:19.976Z,99.99
2018-03-16T07:30:19.885Z,99.99
2018-03-16T07:32:12.697Z,99.99
2018-03-16T07:33:12.595Z,99.99
2018-03-16T07:35:05.328Z,99.99
2018-03-16T07:36:05.243Z,99.99
2018-03-16T07:37:58.100Z,99.99
2018-03-16T07:38:58.039Z,99.99
2018-03-16T07:40:50.847Z,99.99
2018-03-16T07:41:50.758Z,99.99
2018-03-16T07:43:43.487Z,99.99
2018-03-16T07:44:43.420Z,99.99
2018-03-16T07:46:36.228Z,99.99
2018-03-16T07:47:36.172Z,99.99
2018-03-16T07:49:28.966Z,99.99
2018-03-16T07:50:28.947Z,99.99
2018-03-16T07:52:20.737Z,99.99
2018-03-16T07:53:20.650Z,99.99
2018-03-16T07:55:12.419Z,99.99
2018-03-16T07:56:12.350Z,99.99
2018-03-16T07:58:05.213Z,99.99
2018-03-16T07:59:05.020Z,99.99
2018-03-16T08:00:57.839Z,99.99
2018-03-16T08:01:57.751Z,99.99
2018-03-16T08:03:50.536Z,99.99
2018-03-16T08:04:50.465Z,99.99
2018-03-16T08:06:43.262Z,99.99
2018-03-16T08:07:43.204Z,99.99
2018-03-16T08:09:35.937Z,99.99
2018-03-16T08:10:35.856Z,99.99
2018-03-16T08:12:28.637Z,99.99
2018-03-16T08:13:28.549Z,99.99
2018-03-16T08:15:21.368Z,99.99
2018-03-16T08:16:21.250Z,99.99
2018-03-16T08:18:14.018Z,99.99
2018-03-16T08:19:13.937Z,99.99
2018-03-16T08:21:06.697Z,99.99
2018-03-16T08:22:06.610Z,99.99
2018-03-16T08:23:59.393Z,99.99
2018-03-16T08:24:59.294Z,99.99
2018-03-16T08:26:52.042Z,99.99
2018-03-16T08:27:51.978Z,99.99
2018-03-16T08:29:44.751Z,99.99
2018-03-16T08:30:44.656Z,99.99
2018-03-16T08:32:37.588Z,99.99
2018-03-16T08:33:37.515Z,99.99
2018-03-16T08:35:30.382Z,99.99
2018-03-16T08:36:30.295Z,99.99
2018-03-16T08:38:23.091Z,99.99
2018-03-16T08:39:22.990Z,99.99
2018-03-16T08:41:15.751Z,99.99
2018-03-16T08:42:15.686Z,99.99
2018-03-16T08:44:08.472Z,99.99
2018-03-16T08:45:08.376Z,99.99
2018-03-16T08:47:01.141Z,99.99
2018-03-16T08:48:01.064Z,99.99
2018-03-16T08:49:53.940Z,99.99
2018-03-16T08:50:53.834Z,99.99
2018-03-16T08:52:46.589Z,99.99
2018-03-16T08:53:46.517Z,99.99
2018-03-16T08:55:39.308Z,99.99
2018-03-16T08:56:39.224Z,99.99
2018-03-16T08:58:32.047Z,99.99
2018-03-16T08:59:31.954Z,99.99
2018-03-16T09:01:24.767Z,99.99
2018-03-16T09:02:24.730Z,99.99
2018-03-16T09:04:17.472Z,99.99
2018-03-16T09:05:17.390Z,99.99
2018-03-16T09:07:10.182Z,99.99
2018-03-16T09:08:10.090Z,99.99
2018-03-16T09:10:02.873Z,99.99
2018-03-16T09:11:02.810Z,99.99
2018-03-16T09:12:55.658Z,99.99
2018-03-16T09:13:55.591Z,99.99
2018-03-16T09:15:48.366Z,99.99
2018-03-16T09:16:48.377Z,99.99
2018-03-16T09:18:41.071Z,99.99
2018-03-16T09:19:40.982Z,99.99
2018-03-16T09:21:33.778Z,99.99
2018-03-16T09:22:33.693Z,99.99
2018-03-16T09:24:26.528Z,99.99
2018-03-16T09:25:26.504Z,99.99
2018-03-16T09:27:19.269Z,99.99
2018-03-16T09:28:19.173Z,99.99
2018-03-16T09:30:11.933Z,99.99
2018-03-16T09:31:11.880Z,99.99
2018-03-16T09:33:04.648Z,99.99
2018-03-16T09:34:04.574Z,99.99
2018-03-16T09:35:57.341Z,99.99
2018-03-16T09:36:57.240Z,99.99
2018-03-16T09:38:50.029Z,99.99
2018-03-16T09:39:49.925Z,99.99
2018-03-16T09:41:42.714Z,99.99
2018-03-16T09:42:42.625Z,99.99
2018-03-16T09:44:35.381Z,99.99
2018-03-16T09:45:35.310Z,99.99
2018-03-16T09:47:28.156Z,99.99
2018-03-16T09:48:28.073Z,99.99
2018-03-16T09:50:20.925Z,99.99
2018-03-16T09:51:20.843Z,99.99
2018-03-16T09:53:13.643Z,99.99
2018-03-16T09:54:13.563Z,99.99
2018-03-16T09:56:06.335Z,99.99
2018-03-16T09:57:06.306Z,99.99
2018-03-16T09:59:00.039Z,99.99
2018-03-16T09:59:59.862Z,99.99
2018-03-16T10:01:52.748Z,99.99
2018-03-16T10:02:52.579Z,99.99
2018-03-16T10:04:45.555Z,99.99
2018-03-16T10:05:45.309Z,99.99
2018-03-16T10:07:38.110Z,99.99
2018-03-16T10:08:37.995Z,99.99
2018-03-16T10:10:30.725Z,99.99
2018-03-16T10:11:30.688Z,99.99
2018-03-16T10:13:23.634Z,99.99
2018-03-16T10:14:23.366Z,99.99
2018-03-16T10:16:16.209Z,99.99
2018-03-16T10:17:16.129Z,99.99
2018-03-16T10:19:08.906Z,99.99
2018-03-16T10:20:08.840Z,99.99
2018-03-16T10:22:01.616Z,99.99
2018-03-16T10:23:01.629Z,99.99
2018-03-16T10:24:54.323Z,99.99
2018-03-16T10:25:54.237Z,99.99
2018-03-16T10:27:46.988Z,99.99
2018-03-16T10:28:46.918Z,99.99
2018-03-16T10:30:39.820Z,99.99
2018-03-16T10:31:39.919Z,99.99
2018-03-16T10:33:32.561Z,99.99
2018-03-16T10:34:32.436Z,99.99
2018-03-16T10:36:25.296Z,99.99
2018-03-16T10:37:25.226Z,99.99
2018-03-16T10:39:18.038Z,99.99
2018-03-16T10:40:17.887Z,99.99
2018-03-16T10:42:10.669Z,99.99
2018-03-16T10:43:10.596Z,99.99
2018-03-16T10:45:03.366Z,99.99
2018-03-16T10:46:03.300Z,99.99
2018-03-16T10:47:55.052Z,99.99
2018-03-16T10:48:54.983Z,99.99
2018-03-16T10:50:47.741Z,99.99
2018-03-16T10:51:47.659Z,99.99
2018-03-16T10:53:40.418Z,99.99
2018-03-16T10:54:40.443Z,99.99
2018-03-16T10:56:32.471Z,99.99
2018-03-16T10:57:32.292Z,99.99
2018-03-16T10:59:25.161Z,99.99
2018-03-16T11:00:25.057Z,99.99
2018-03-16T11:02:16.911Z,99.99
2018-03-16T11:03:16.812Z,99.99
2018-03-16T11:05:09.645Z,99.99
2018-03-16T11:06:09.460Z,99.99
2018-03-16T11:08:02.258Z,99.99
2018-03-16T11:09:02.213Z,99.99
2018-03-16T11:10:55.014Z,99.99
2018-03-16T11:11:54.923Z,99.99
2018-03-16T11:13:47.693Z,99.99
2018-03-16T11:14:47.847Z,99.99
2018-03-16T11:16:40.393Z,99.99
2018-03-16T11:17:40.323Z,99.99
2018-03-16T11:19:33.105Z,99.99
2018-03-16T11:20:33.018Z,99.99
2018-03-16T11:22:25.806Z,99.99
2018-03-16T11:23:25.754Z,99.99
2018-03-16T11:25:18.499Z,99.99
2018-03-16T11:26:18.414Z,99.99
2018-03-16T11:28:11.287Z,99.99
2018-03-16T11:29:11.277Z,99.99
2018-03-16T11:31:03.088Z,99.99
2018-03-16T11:32:02.974Z,99.99
2018-03-16T11:33:55.803Z,99.99
2018-03-16T11:34:55.713Z,99.99
2018-03-16T11:36:48.476Z,99.99
2018-03-16T11:37:48.390Z,99.99
2018-03-16T11:39:41.189Z,99.99
2018-03-16T11:40:41.075Z,99.99
2018-03-16T11:42:33.846Z,99.99
2018-03-16T11:43:33.835Z,99.99
2018-03-16T11:45:26.565Z,99.99
2018-03-16T11:46:26.573Z,99.99
2018-03-16T11:48:19.274Z,99.99
2018-03-16T11:49:19.180Z,99.99
2018-03-16T11:51:11.952Z,99.99
2018-03-16T11:52:11.855Z,99.99
2018-03-16T11:54:04.891Z,99.99
2018-03-16T11:55:04.580Z,99.99
2018-03-16T11:56:57.315Z,99.99
2018-03-16T11:57:57.248Z,99.99
2018-03-16T11:59:49.267Z,99.99
2018-03-16T12:00:49.101Z,99.99
2018-03-16T12:02:41.867Z,99.99
2018-03-16T12:03:41.785Z,99.99
2018-03-16T12:05:33.578Z,99.99
2018-03-16T12:06:33.502Z,99.99
2018-03-16T12:08:26.337Z,99.99
2018-03-16T12:09:26.216Z,99.99
2018-03-16T12:11:19.011Z,99.99
2018-03-16T12:12:18.937Z,99.99
2018-03-16T12:14:11.881Z,99.99
2018-03-16T12:15:11.631Z,99.99
2018-03-16T12:17:04.387Z,99.99
2018-03-16T12:18:04.454Z,99.99
2018-03-16T12:19:57.180Z,99.99
2018-03-16T12:20:57.090Z,99.99
2018-03-16T12:22:49.948Z,99.99
2018-03-16T12:23:49.778Z,99.99
2018-03-16T12:25:42.655Z,99.99
2018-03-16T12:26:42.530Z,99.99
2018-03-16T12:28:49.522Z,99.99
2018-03-16T12:29:35.184Z,99.99
2018-03-16T12:31:27.991Z,99.99
2018-03-16T12:32:27.964Z,99.99
2018-03-16T12:34:20.727Z,99.99
2018-03-16T12:35:20.740Z,99.99
2018-03-16T12:37:13.401Z,99.99
2018-03-16T12:38:13.737Z,99.99
2018-03-16T12:40:05.135Z,99.99
2018-03-16T12:41:05.066Z,99.99
2018-03-16T12:42:57.809Z,99.99
2018-03-16T12:43:57.728Z,99.99
2018-03-16T12:45:50.575Z,99.99
2018-03-16T12:46:50.514Z,99.99
2018-03-16T12:48:42.243Z,99.99
2018-03-16T12:49:42.131Z,99.99
2018-03-16T12:51:42.079Z,99.99
2018-03-16T12:52:34.820Z,99.99
2018-03-16T12:54:27.602Z,99.99
2018-03-16T12:55:27.520Z,99.99
2018-03-16T12:57:19.259Z,99.99
2018-03-16T12:58:19.191Z,99.99
2018-03-16T13:00:11.966Z,99.99
2018-03-16T13:01:12.148Z,99.99
2018-03-16T13:03:04.770Z,99.99
2018-03-16T13:04:04.582Z,99.99
2018-03-16T13:05:56.338Z,99.99
2018-03-16T13:06:56.261Z,99.99
2018-03-16T13:08:49.035Z,99.99
2018-03-16T13:09:48.965Z,99.99
2018-03-16T13:11:41.728Z,99.99
2018-03-16T13:12:41.645Z,99.99
2018-03-16T13:14:34.434Z,99.99
2018-03-16T13:15:34.347Z,99.99
2018-03-16T13:17:27.099Z,99.99
2018-03-16T13:18:27.079Z,99.99
2018-03-16T13:20:18.840Z,99.99
2018-03-16T13:21:18.746Z,99.99
2018-03-16T13:23:10.501Z,99.99
2018-03-16T13:24:10.425Z,99.99
2018-03-16T13:26:02.282Z,99.99
2018-03-16T13:27:02.087Z,99.99
2018-03-16T13:28:53.866Z,99.99
2018-03-16T13:29:53.798Z,99.99
2018-03-16T13:31:46.554Z,99.99
2018-03-16T13:32:46.483Z,99.99
2018-03-16T13:34:38.261Z,99.99
2018-03-16T13:35:38.131Z,99.99
2018-03-16T13:37:30.926Z,99.99
2018-03-16T13:38:30.851Z,99.99
2018-03-16T13:40:23.697Z,99.99
2018-03-16T13:41:23.566Z,99.99
2018-03-16T13:43:15.329Z,99.99
2018-03-16T13:44:15.362Z,99.99
2018-03-16T13:46:08.145Z,99.99
2018-03-16T13:47:08.108Z,99.99
2018-03-16T13:48:59.842Z,99.99
2018-03-16T13:49:59.741Z,99.99
2018-03-16T13:51:51.795Z,99.99
2018-03-16T13:52:51.724Z,99.99
2018-03-16T13:54:43.457Z,99.99
2018-03-16T13:55:43.377Z,99.99
2018-03-16T13:57:36.174Z,99.99
2018-03-16T13:58:36.170Z,99.99
2018-03-16T14:00:28.918Z,99.99
2018-03-16T14:01:28.802Z,99.99
2018-03-16T14:03:21.649Z,99.99
2018-03-16T14:04:21.516Z,99.99
2018-03-16T14:06:14.307Z,99.99
2018-03-16T14:07:14.222Z,99.99
2018-03-16T14:09:06.994Z,99.99
2018-03-16T14:10:06.915Z,99.99
2018-03-16T14:11:58.756Z,99.99
2018-03-16T14:12:58.654Z,99.99
2018-03-16T14:14:51.422Z,99.99
2018-03-16T14:15:51.345Z,99.99
2018-03-16T14:17:43.197Z,99.99
2018-03-16T14:18:43.140Z,99.99
2018-03-16T14:20:35.897Z,99.99
2018-03-16T14:21:35.821Z,99.99
2018-03-16T14:23:28.596Z,99.99
2018-03-16T14:24:28.522Z,99.99
2018-03-16T14:26:21.295Z,99.99
2018-03-16T14:27:21.200Z,99.99
2018-03-16T14:29:13.958Z,99.99
2018-03-16T14:30:13.947Z,99.99
2018-03-16T14:32:06.830Z,99.99
2018-03-16T14:33:06.708Z,99.99
2018-03-16T14:34:59.467Z,99.99
2018-03-16T14:35:59.436Z,99.99
2018-03-16T14:37:51.196Z,99.99
2018-03-16T14:38:51.130Z,99.99
2018-03-16T14:40:43.903Z,99.99
2018-03-16T14:41:43.874Z,99.99
2018-03-16T14:43:36.585Z,99.99
2018-03-16T14:44:36.585Z,99.99
2018-03-16T14:46:29.266Z,99.99
2018-03-16T14:47:29.185Z,99.99
2018-03-16T14:49:21.979Z,99.99
2018-03-16T14:50:21.868Z,99.99
2018-03-16T14:52:14.647Z,98.10
2018-03-16T14:53:14.681Z,99.99
2018-03-16T14:55:06.322Z,99.99
2018-03-16T14:56:06.242Z,99.99
2018-03-16T14:57:59.015Z,99.15
2018-03-16T14:58:58.943Z,99.71
2018-03-16T15:00:51.752Z,96.02
2018-03-16T15:01:51.632Z,99.05
2018-03-16T15:03:44.437Z,98.48
2018-03-16T15:04:44.356Z,99.80
2018-03-16T15:06:37.219Z,98.58
2018-03-16T15:07:37.151Z,99.05
2018-03-16T15:09:29.920Z,99.99
2018-03-16T15:10:29.872Z,97.63
2018-03-16T15:12:22.617Z,95.45
2018-03-16T15:13:22.538Z,97.91
2018-03-16T15:15:15.314Z,99.15
2018-03-16T15:16:15.267Z,96.88
2018-03-16T15:18:08.174Z,98.10
2018-03-16T15:19:08.117Z,95.07
2018-03-16T15:21:00.894Z,95.07
2018-03-16T15:22:00.801Z,95.83
2018-03-16T15:23:53.592Z,95.26
2018-03-16T15:24:53.495Z,94.13
2018-03-16T15:26:46.289Z,94.70
2018-03-16T15:27:46.202Z,95.07
2018-03-16T15:29:39.010Z,92.52
2018-03-16T15:30:38.893Z,92.80
2018-03-16T15:32:31.688Z,93.37
2018-03-16T15:33:31.599Z,92.99
2018-03-16T15:35:24.435Z,93.85
2018-03-16T15:36:24.339Z,92.99
2018-03-16T15:38:17.103Z,94.13
2018-03-16T15:39:17.030Z,94.51
2018-03-16T15:41:09.881Z,94.42
2018-03-16T15:42:09.842Z,91.39
2018-03-16T15:44:01.501Z,94.70
2018-03-16T15:45:01.412Z,93.09
2018-03-16T15:46:54.199Z,91.67
2018-03-16T15:47:54.135Z,92.43
2018-03-16T15:49:46.883Z,92.52
2018-03-16T15:50:46.856Z,91.29
2018-03-16T15:52:38.578Z,91.10
2018-03-16T15:53:38.510Z,90.34
2018-03-16T15:55:31.326Z,90.72
2018-03-16T15:56:31.213Z,89.02
2018-03-16T15:58:23.978Z,87.88
2018-03-16T15:59:23.904Z,89.59
2018-03-16T16:01:16.858Z,90.63
2018-03-16T16:02:16.695Z,88.83
2018-03-16T16:04:09.458Z,88.74
2018-03-16T16:05:09.614Z,88.74
2018-03-16T16:07:01.226Z,90.91
2018-03-16T16:08:01.154Z,90.72
2018-03-16T16:09:53.993Z,89.59
2018-03-16T16:10:53.823Z,88.93
2018-03-16T16:12:46.733Z,88.64
2018-03-16T16:13:46.658Z,88.93
2018-03-16T16:15:38.636Z,89.50
2018-03-16T16:16:38.311Z,91.58
2018-03-16T16:18:31.066Z,93.47
2018-03-16T16:19:30.980Z,90.25
2018-03-16T16:21:22.885Z,89.02
2018-03-16T16:22:22.748Z,89.40
2018-03-16T16:24:14.474Z,91.01
2018-03-16T16:25:14.359Z,90.72
2018-03-16T16:27:06.148Z,88.12
2018-03-16T16:28:06.038Z,89.97
2018-03-16T16:29:58.866Z,87.88
2018-03-16T16:30:58.789Z,90.16
2018-03-16T16:32:51.592Z,91.96
2018-03-16T16:33:51.486Z,89.97
2018-03-16T16:35:44.240Z,89.87
2018-03-16T16:36:44.165Z,88.74
2018-03-16T16:38:36.942Z,90.06
2018-03-16T16:39:36.844Z,89.78
2018-03-16T16:41:29.630Z,92.43
2018-03-16T16:42:29.631Z,89.31
2018-03-16T16:44:22.579Z,87.51
2018-03-16T16:45:22.237Z,86.75
2018-03-16T16:47:14.986Z,90.72
2018-03-16T16:48:15.110Z,90.16
2018-03-16T16:50:07.708Z,89.78
2018-03-16T16:51:07.715Z,87.23
2018-03-16T16:53:00.466Z,85.38
2018-03-16T16:54:00.347Z,86.75
2018-03-16T16:55:53.173Z,88.03
2018-03-16T16:56:53.072Z,88.45
2018-03-16T16:58:45.843Z,87.32
2018-03-16T16:59:45.768Z,87.55
2018-03-16T17:01:38.525Z,87.74
2018-03-16T17:02:38.450Z,87.60
2018-03-16T17:04:31.216Z,86.90
2018-03-16T17:05:31.193Z,84.67
2018-03-16T17:07:23.914Z,84.77
2018-03-16T17:08:23.820Z,86.66
2018-03-16T17:10:15.816Z,85.99
2018-03-16T17:11:15.588Z,85.38
2018-03-16T17:13:08.327Z,86.94
2018-03-16T17:14:08.257Z,88.41
2018-03-16T17:16:00.071Z,83.59
2018-03-16T17:17:00.033Z,85.33
2018-03-16T17:18:52.924Z,85.42
2018-03-16T17:19:52.781Z,87.27
2018-03-16T17:21:45.519Z,85.85
2018-03-16T17:22:45.374Z,84.53
2018-03-16T17:24:38.157Z,84.67
2018-03-16T17:25:38.064Z,85.57
2018-03-16T17:27:29.884Z,85.76
2018-03-16T17:28:29.739Z,84.81
2018-03-16T17:30:22.559Z,83.49
2018-03-16T17:31:22.474Z,85.66
2018-03-16T17:33:15.240Z,87.93
2018-03-16T17:34:15.131Z,86.99
2018-03-16T17:36:07.954Z,85.57
2018-03-16T17:37:07.812Z,83.87
2018-03-16T17:39:00.558Z,85.76
2018-03-16T17:40:00.499Z,85.76
2018-03-16T17:41:52.305Z,84.44
2018-03-16T17:42:52.200Z,85.66
2018-03-16T17:44:44.978Z,84.81
2018-03-16T17:45:44.890Z,84.44
2018-03-16T17:47:37.869Z,83.25
2018-03-16T17:48:37.603Z,83.59
2018-03-16T17:50:30.395Z,83.68
2018-03-16T17:51:30.311Z,83.49
2018-03-16T17:53:23.097Z,83.59
2018-03-16T17:54:23.023Z,83.40
2018-03-16T17:56:16.088Z,83.68
2018-03-16T17:57:15.779Z,84.63
2018-03-16T17:59:07.586Z,83.40
2018-03-16T18:00:07.519Z,84.16
2018-03-16T18:02:00.269Z,83.87
2018-03-16T18:03:00.237Z,83.87
2018-03-16T18:04:52.031Z,82.17
2018-03-16T18:05:51.989Z,81.88
2018-03-16T18:07:44.764Z,81.60
2018-03-16T18:08:44.703Z,80.94
2018-03-16T18:10:37.438Z,81.03
2018-03-16T18:11:37.348Z,81.79
2018-03-16T18:13:29.291Z,79.80
2018-03-16T18:14:29.070Z,79.61
2018-03-16T18:16:20.791Z,79.33
2018-03-16T18:17:20.729Z,78.86
2018-03-16T18:19:12.461Z,80.56
2018-03-16T18:20:12.429Z,80.75
2018-03-16T18:22:04.174Z,80.27
2018-03-16T18:23:04.157Z,80.65
2018-03-16T18:24:57.068Z,80.46
2018-03-16T18:25:56.823Z,82.64
2018-03-16T18:27:48.684Z,81.98
2018-03-16T18:28:48.738Z,83.78
2018-03-16T18:30:41.591Z,84.81